Time;durP1;ratioP1;P1;durP2;ratioP2;P2;SDS_P1;SDS_P2;PMS_P1;PMS_P2;Temp;Humidity;BMP_temperature;BMP_pressure;BME280_temperature;BME280_humidity;BME280_pressure;Samples;Min_cycle;Max_cycle;Signal;HPM_P1;HPM_P2
2024/03/29 00:01:38;;;;;;;17.85;4.68;;;;;;;17.40;43.12;99326.72;5092707;28;20024;-35
2024/03/29 00:04:03;;;;;;;17.08;3.72;;;;;;;17.33;43.32;99323.47;5092345;28;20020;-36
2024/03/29 00:06:29;;;;;;;18.58;3.50;;;;;;;17.38;43.18;99327.00;5092334;28;20107;-37
2024/03/29 00:08:54;;;;;;;14.48;3.60;;;;;;;17.46;43.09;99331.09;5092548;28;20111;-37
2024/03/29 00:11:20;;;;;;;16.27;3.95;;;;;;;17.50;42.65;99331.41;5091955;28;20019;-36
2024/03/29 00:13:45;;;;;;;17.20;4.40;;;;;;;17.38;42.83;99336.94;5092037;28;20386;-39
2024/03/29 00:16:11;;;;;;;15.38;3.90;;;;;;;17.29;42.94;99328.56;5092239;28;20100;-38
2024/03/29 00:18:37;;;;;;;15.40;3.63;;;;;;;17.33;43.35;99320.78;5092337;28;20050;-39
2024/03/29 00:21:02;;;;;;;19.38;3.70;;;;;;;17.12;43.88;99325.19;5092012;28;20106;-38
2024/03/29 00:23:28;;;;;;;17.92;3.70;;;;;;;16.85;44.09;99319.84;5092255;28;20391;-38
2024/03/29 00:25:57;;;;;;;16.42;3.83;;;;;;;16.79;44.92;99321.63;5091886;28;20070;-36
2024/03/29 00:28:23;;;;;;;15.82;3.47;;;;;;;16.76;44.59;99327.53;5091675;28;20563;-39
2024/03/29 00:30:48;;;;;;;16.95;3.35;;;;;;;16.76;45.08;99328.34;5091846;28;20028;-35
2024/03/29 00:33:14;;;;;;;19.17;3.55;;;;;;;16.84;44.94;99334.34;5091609;28;20071;-37
2024/03/29 00:35:39;;;;;;;17.40;3.30;;;;;;;16.98;44.14;99325.63;5091689;28;20090;-37
2024/03/29 00:38:06;;;;;;;7.63;3.03;;;;;;;17.16;43.07;99329.78;5091841;28;20037;-38
2024/03/29 00:40:31;;;;;;;12.50;3.30;;;;;;;16.99;43.93;99329.13;5091790;28;20492;-35
2024/03/29 00:42:56;;;;;;;10.75;3.20;;;;;;;17.07;42.83;99334.00;5091680;28;20065;-36
2024/03/29 00:45:22;;;;;;;10.88;2.90;;;;;;;17.09;42.99;99334.56;5091741;28;20027;-38
2024/03/29 00:47:47;;;;;;;13.82;3.25;;;;;;;17.06;43.48;99328.88;5091593;28;20142;-39
2024/03/29 00:50:13;;;;;;;12.43;2.80;;;;;;;16.86;43.63;99324.97;5091288;28;20027;-37
2024/03/29 00:52:38;;;;;;;11.05;2.80;;;;;;;16.93;43.59;99322.09;5091357;28;20107;-36
2024/03/29 00:55:05;;;;;;;21.58;2.92;;;;;;;16.77;43.96;99329.16;5091377;28;20165;-37
2024/03/29 00:57:30;;;;;;;11.02;2.95;;;;;;;16.62;43.90;99321.78;5078138;28;20385;-38
2024/03/29 00:59:59;;;;;;;13.20;3.55;;;;;;;16.51;44.42;99323.53;5072940;28;20039;-39
2024/03/29 01:02:24;;;;;;;17.05;3.15;;;;;;;16.73;44.51;99320.78;5083429;28;20028;-38
2024/03/29 01:04:50;;;;;;;9.13;2.88;;;;;;;16.90;43.86;99330.66;5089074;28;20039;-41
2024/03/29 01:07:17;;;;;;;14.48;2.90;;;;;;;16.96;43.64;99329.63;5078469;28;20052;-38
2024/03/29 01:09:43;;;;;;;13.57;3.20;;;;;;;17.01;43.20;99326.97;5073985;28;20174;-39
2024/03/29 01:12:09;;;;;;;13.88;3.60;;;;;;;17.09;43.69;99325.69;5088645;28;20564;-39
2024/03/29 01:14:34;;;;;;;11.32;3.22;;;;;;;17.04;44.04;99321.09;5092002;28;20036;-35
2024/03/29 01:16:59;;;;;;;12.82;3.92;;;;;;;17.04;44.18;99326.47;5090596;28;20020;-37
2024/03/29 01:19:25;;;;;;;10.77;3.20;;;;;;;16.86;44.17;99332.22;5076389;28;20107;-37
2024/03/29 01:21:50;;;;;;;13.57;3.55;;;;;;;16.79;44.75;99330.53;5071637;28;20457;-39
2024/03/29 01:24:16;;;;;;;10.93;3.17;;;;;;;16.25;45.78;99341.22;5088726;28;20024;-37
2024/03/29 01:26:41;;;;;;;12.40;3.00;;;;;;;16.32;45.49;99331.09;5091433;28;20024;-36
2024/03/29 01:29:06;;;;;;;15.32;3.25;;;;;;;16.37;45.49;99339.22;5091752;28;20329;-39
2024/03/29 01:31:32;;;;;;;12.68;2.80;;;;;;;16.08;46.04;99340.47;5075229;28;20115;-37
2024/03/29 01:33:58;;;;;;;15.50;3.10;;;;;;;16.31;45.21;99342.91;5070962;28;20020;-35
2024/03/29 01:36:23;;;;;;;8.43;2.60;;;;;;;16.50;44.21;99348.75;5070834;28;20476;-38
2024/03/29 01:38:52;;;;;;;20.13;2.90;;;;;;;16.63;44.36;99342.19;5070410;28;20063;-37
2024/03/29 01:41:17;;;;;;;12.68;2.72;;;;;;;16.68;43.33;99350.28;5089049;28;20084;-38
2024/03/29 01:43:42;;;;;;;9.13;2.20;;;;;;;16.75;42.98;99353.59;5091027;28;20024;-35
2024/03/29 01:46:08;;;;;;;6.88;2.83;;;;;;;16.72;43.46;99351.41;5091181;28;20486;-37
2024/03/29 01:48:33;;;;;;;9.32;2.40;;;;;;;16.60;42.60;99356.94;5091065;28;20028;-37
2024/03/29 01:51:00;;;;;;;12.98;2.15;;;;;;;16.20;43.89;99346.53;5090809;28;20027;-40
2024/03/29 01:53:27;;;;;;;9.98;2.70;;;;;;;16.19;43.75;99359.13;5091297;28;20026;-38
2024/03/29 01:55:53;;;;;;;11.88;2.50;;;;;;;16.03;44.56;99362.72;5090409;28;20024;-39
2024/03/29 01:58:20;;;;;;;11.57;2.40;;;;;;;15.82;45.93;99370.47;5088833;28;20016;-39
2024/03/29 02:00:58;;;;;;;13.88;2.80;;;;;;;15.96;45.94;99373.59;5090228;28;20027;-37
2024/03/29 02:03:23;;;;;;;9.85;2.92;;;;;;;15.80;46.11;99377.97;5090585;28;20448;-37
2024/03/29 02:05:50;;;;;;;8.23;2.58;;;;;;;15.86;46.01;99386.88;5089523;28;20173;-39
2024/03/29 02:08:16;;;;;;;12.63;3.00;;;;;;;15.62;47.10;99394.28;5089924;28;20050;-37
2024/03/29 02:10:42;;;;;;;11.77;2.80;;;;;;;16.06;46.02;99399.75;5090509;28;20356;-38
2024/03/29 02:13:07;;;;;;;18.02;3.40;;;;;;;16.33;45.64;99397.16;5090022;28;20439;-37
2024/03/29 02:15:33;;;;;;;11.25;2.80;;;;;;;16.23;45.13;99397.03;5092529;28;20115;-38
2024/03/29 02:17:58;;;;;;;12.75;2.83;;;;;;;16.10;45.48;99408.94;5092833;28;20042;-41
2024/03/29 02:20:25;;;;;;;12.77;3.00;;;;;;;15.87;46.14;99393.06;5092332;28;20059;-41
2024/03/29 02:22:54;;;;;;;11.50;2.88;;;;;;;15.39;46.84;99403.31;5092729;28;20024;-39
2024/03/29 02:25:20;;;;;;;12.00;2.95;;;;;;;15.53;46.10;99406.47;5092437;28;20081;-40
2024/03/29 02:27:46;;;;;;;9.07;2.80;;;;;;;15.52;46.62;99402.97;5093554;28;20032;-39
2024/03/29 02:30:15;;;;;;;14.35;3.08;;;;;;;15.12;47.53;99400.44;5094011;28;20027;-39
2024/03/29 02:32:41;;;;;;;;;;;;;;;15.49;46.48;99399.97;5094928;28;20028;-39
2024/03/29 02:35:07;;;;;;;9.20;2.85;;;;;;;15.86;45.00;99402.16;5093928;28;19908;-39
2024/03/29 02:37:33;;;;;;;10.27;2.88;;;;;;;16.01;44.82;99413.09;5093828;28;20067;-40
2024/03/29 02:39:58;;;;;;;10.48;2.63;;;;;;;16.11;44.18;99425.88;5094221;28;20095;-37
2024/03/29 02:42:24;;;;;;;11.30;2.80;;;;;;;16.20;44.69;99435.09;5093868;28;20430;-40
2024/03/29 02:44:49;;;;;;;17.17;2.90;;;;;;;16.38;43.80;99442.06;5094270;28;20028;-37
2024/03/29 02:47:14;;;;;;;9.35;2.35;;;;;;;16.37;43.95;99443.13;5093949;28;20023;-39
2024/03/29 02:49:40;;;;;;;8.65;2.38;;;;;;;16.24;43.94;99444.31;5094096;28;20024;-39
2024/03/29 02:52:05;;;;;;;8.55;2.70;;;;;;;15.85;44.37;99443.47;5094067;28;20024;-39
2024/03/29 02:54:31;;;;;;;7.05;2.35;;;;;;;15.65;45.18;99436.72;5093883;28;20497;-39
2024/03/29 02:56:56;;;;;;;10.88;2.67;;;;;;;15.69;45.14;99448.56;5093792;28;20385;-38
2024/03/29 02:59:22;;;;;;;11.15;3.10;;;;;;;15.75;44.76;99449.50;5086929;28;20021;-40
2024/03/29 03:01:47;;;;;;;7.18;2.60;;;;;;;16.13;44.22;99455.97;5073545;28;20481;-40
2024/03/29 03:04:13;;;;;;;12.48;2.60;;;;;;;16.29;44.05;99459.66;5073432;28;20043;-38
2024/03/29 03:06:38;;;;;;;8.75;2.65;;;;;;;16.28;43.48;99442.75;5073374;28;20039;-39
2024/03/29 03:11:48;;;;;;;7.95;2.40;;;;;;;16.17;43.08;99468.63;5087625;28;20031;-38
2024/03/29 03:14:13;;;;;;;7.40;2.30;;;;;;;16.33;42.38;99471.53;5093300;28;20251;-38
2024/03/29 03:16:38;;;;;;;10.75;2.75;;;;;;;16.25;42.47;99480.03;5093408;28;20468;-39
2024/03/29 03:19:04;;;;;;;6.28;2.33;;;;;;;16.23;42.66;99489.13;5093375;28;20027;-38
2024/03/29 03:21:29;;;;;;;9.57;2.60;;;;;;;16.15;42.68;99494.09;5093480;28;20024;-35
2024/03/29 03:23:55;;;;;;;5.88;2.10;;;;;;;15.83;43.88;99494.69;5093183;28;20091;-39
2024/03/29 03:26:20;;;;;;;11.35;2.65;;;;;;;15.80;44.36;99498.69;5093600;28;20034;-37
2024/03/29 03:28:45;;;;;;;8.70;2.40;;;;;;;15.88;44.45;99500.16;5093086;28;20024;-39
2024/03/29 03:31:11;;;;;;;8.63;2.35;;;;;;;16.06;44.14;99509.81;5092947;28;20516;-38
2024/03/29 03:33:36;;;;;;;7.30;2.30;;;;;;;15.94;43.88;99504.53;5093033;28;20021;-39
2024/03/29 03:36:02;;;;;;;5.63;2.15;;;;;;;15.66;44.77;99512.63;5093512;28;20072;-39
2024/03/29 03:38:28;;;;;;;8.77;2.33;;;;;;;15.39;45.22;99515.91;5092795;28;20056;-36
2024/03/29 03:40:53;;;;;;;7.75;2.15;;;;;;;15.52;45.11;99526.34;5093423;28;20074;-38
2024/03/29 03:43:19;;;;;;;7.07;2.20;;;;;;;15.61;44.85;99524.06;5092975;28;20059;-39
2024/03/29 03:45:47;;;;;;;10.98;2.33;;;;;;;15.80;43.66;99536.25;5092413;28;20048;-37
2024/03/29 03:48:13;;;;;;;7.68;2.20;;;;;;;15.77;43.69;99520.63;5084174;28;20244;-39
2024/03/29 03:50:38;;;;;;;6.40;1.77;;;;;;;15.76;43.46;99550.38;5092969;28;20028;-40
2024/03/29 03:53:04;;;;;;;11.20;1.85;;;;;;;15.93;42.44;99545.81;5090448;28;20031;-39
2024/03/29 03:55:29;;;;;;;11.98;2.15;;;;;;;15.91;42.99;99549.81;5106736;28;20022;-39
2024/03/29 03:57:55;;;;;;;9.35;2.42;;;;;;;15.75;43.45;99543.41;5092961;28;20054;-36
2024/03/29 04:00:22;;;;;;;6.90;2.00;;;;;;;15.98;43.12;99556.66;5094684;28;20409;-39
2024/03/29 04:02:50;;;;;;;6.53;2.42;;;;;;;15.91;42.74;99571.28;5097588;28;20023;-38
2024/03/29 04:05:17;;;;;;;8.30;2.20;;;;;;;15.76;43.68;99569.97;5101908;28;20476;-39
2024/03/29 04:07:42;;;;;;;8.30;2.17;;;;;;;15.63;43.39;99568.38;5102011;28;20486;-39
2024/03/29 04:10:08;;;;;;;6.65;2.08;;;;;;;15.77;43.43;99562.75;5101443;28;20105;-39
2024/03/29 04:12:33;;;;;;;9.18;2.10;;;;;;;15.48;43.82;99569.94;5104884;28;20055;-38
2024/03/29 04:14:59;;;;;;;7.35;1.80;;;;;;;15.55;44.58;99576.78;5099910;28;20030;-40
2024/03/29 04:17:24;;;;;;;10.40;1.98;;;;;;;15.24;45.13;99578.91;5092572;28;20065;-38
2024/03/29 04:19:50;;;;;;;6.10;2.05;;;;;;;15.52;43.94;99577.28;5093185;28;20400;-37
2024/03/29 04:22:15;;;;;;;7.97;2.28;;;;;;;15.83;44.28;99589.41;5092176;28;20020;-39
2024/03/29 04:24:41;;;;;;;8.07;1.73;;;;;;;15.86;43.62;99579.25;5091697;28;20460;-39
2024/03/29 04:27:06;;;;;;;11.93;2.47;;;;;;;16.21;42.62;99579.84;5092820;28;20039;-38
2024/03/29 04:29:32;;;;;;;7.28;1.90;;;;;;;16.46;41.99;99578.59;5092252;28;20024;-37
2024/03/29 04:31:57;;;;;;;7.22;1.73;;;;;;;16.31;42.63;99578.38;5092247;28;20476;-37
2024/03/29 04:34:22;;;;;;;4.07;2.00;;;;;;;16.07;42.80;99578.53;5092380;28;20039;-40
2024/03/29 04:36:48;;;;;;;8.68;1.70;;;;;;;16.47;42.49;99582.09;5091757;28;20183;-38
2024/03/29 04:39:13;;;;;;;7.28;1.85;;;;;;;16.38;42.50;99579.03;5091954;28;20139;-39
2024/03/29 04:41:39;;;;;;;7.32;1.95;;;;;;;16.42;41.69;99577.47;5088289;28;20565;-39
2024/03/29 04:44:04;;;;;;;9.68;2.45;;;;;;;16.39;42.05;99589.53;5081899;28;20027;-37
2024/03/29 04:46:31;;;;;;;4.13;1.77;;;;;;;16.39;41.92;99586.84;5092439;28;20020;-39
2024/03/29 04:48:57;;;;;;;6.15;2.20;;;;;;;16.49;41.48;99596.13;5092188;28;20047;-39
2024/03/29 04:51:23;;;;;;;3.60;1.48;;;;;;;16.46;41.53;99597.41;5091923;28;20028;-38
2024/03/29 04:53:49;;;;;;;4.90;1.83;;;;;;;16.68;41.46;99607.38;5091999;28;20032;-38
2024/03/29 04:56:14;;;;;;;5.95;1.80;;;;;;;17.02;40.47;99608.16;5085859;28;20035;-38
2024/03/29 04:58:40;;;;;;;5.90;1.63;;;;;;;17.30;40.00;99599.06;5074481;28;20458;-39
2024/03/29 05:01:05;;;;;;;9.27;2.03;;;;;;;17.74;38.91;99608.97;5072016;28;20028;-39
2024/03/29 05:03:30;;;;;;;6.38;1.95;;;;;;;17.97;38.75;99607.88;5071964;28;20108;-40
2024/03/29 05:05:56;;;;;;;7.95;1.70;;;;;;;18.29;38.08;99607.88;5071916;28;20112;-38
2024/03/29 05:08:22;;;;;;;7.38;2.10;;;;;;;18.70;37.38;99610.88;5072238;28;20023;-39
2024/03/29 05:10:51;;;;;;;6.05;1.80;;;;;;;19.09;36.41;99609.75;5077824;28;20023;-40
2024/03/29 05:13:17;;;;;;;9.17;1.87;;;;;;;18.94;36.49;99611.31;5092242;28;20024;-39
2024/03/29 05:15:44;;;;;;;5.88;1.90;;;;;;;19.31;36.36;99625.75;5091145;28;20024;-36
2024/03/29 05:18:09;;;;;;;6.90;2.00;;;;;;;19.82;35.52;99636.75;5091680;28;20024;-40
2024/03/29 05:20:35;;;;;;;5.85;1.75;;;;;;;20.16;35.05;99632.72;5091392;28;20539;-40
2024/03/29 05:23:00;;;;;;;11.52;1.98;;;;;;;20.29;35.06;99635.69;5091698;28;20020;-39
2024/03/29 05:25:26;;;;;;;8.18;2.22;;;;;;;20.36;34.74;99640.81;5091765;28;20396;-39
2024/03/29 05:27:52;;;;;;;6.07;1.85;;;;;;;20.64;34.12;99644.91;5092151;28;20028;-38
2024/03/29 05:30:18;;;;;;;5.55;1.88;;;;;;;21.31;32.77;99643.91;5091893;28;20378;-38
2024/03/29 05:32:44;;;;;;;7.90;2.28;;;;;;;21.46;32.14;99641.97;5091637;28;20028;-28
2024/03/29 05:35:10;;;;;;;9.10;2.10;;;;;;;21.48;31.96;99647.91;5090540;28;20016;-27
2024/03/29 05:37:36;;;;;;;11.25;2.30;;;;;;;22.11;31.51;99659.22;5091231;28;20051;-27
2024/03/29 05:40:04;;;;;;;6.65;2.00;;;;;;;22.63;30.82;99653.09;5090012;28;20020;-27
2024/03/29 05:42:32;;;;;;;7.70;1.90;;;;;;;22.96;30.25;99660.63;5089855;28;20467;-27
2024/03/29 05:44:57;;;;;;;4.95;1.48;;;;;;;23.09;29.79;99653.75;5091012;28;20036;-26
2024/03/29 05:47:23;;;;;;;5.00;1.70;;;;;;;23.27;29.40;99649.50;5088636;28;20228;-26
2024/03/29 05:49:49;;;;;;;7.93;3.05;;;;;;;23.03;29.58;99661.13;5090531;28;20020;-27
2024/03/29 05:52:15;;;;;;;6.60;3.10;;;;;;;23.11;29.12;99665.13;5089601;28;20048;-28
2024/03/29 05:54:42;;;;;;;8.75;2.38;;;;;;;23.41;28.97;99670.19;5090339;28;20023;-24
2024/03/29 05:57:08;;;;;;;6.40;2.90;;;;;;;23.21;29.25;99687.53;5091110;28;20380;-30
2024/03/29 05:59:34;;;;;;;7.60;2.45;;;;;;;23.66;28.70;99681.81;5090970;28;20031;-27
2024/03/29 06:01:59;;;;;;;8.40;2.10;;;;;;;24.48;27.62;99677.91;5091023;28;20032;-26
2024/03/29 06:04:32;;;;;;;5.25;1.80;;;;;;;24.20;28.05;99672.41;5090985;28;20121;-26
2024/03/29 06:06:58;;;;;;;10.88;1.95;;;;;;;24.19;27.91;99678.13;5090800;28;20032;-27
2024/03/29 06:09:24;;;;;;;10.88;1.80;;;;;;;24.62;27.64;99678.00;5091060;28;20097;-28
2024/03/29 06:11:49;;;;;;;5.95;1.65;;;;;;;24.59;27.54;99682.09;5091257;28;20035;-27
2024/03/29 06:19:43;;;;;;;5.05;1.75;;;;;;;25.28;27.10;99689.59;5090621;28;20054;-26
2024/03/29 06:22:09;;;;;;;7.05;1.67;;;;;;;25.09;27.63;99691.56;5090726;28;20465;-28
2024/03/29 06:24:35;;;;;;;4.65;1.80;;;;;;;24.49;27.98;99687.69;5091019;28;20035;-27
2024/03/29 06:27:00;;;;;;;4.57;1.77;;;;;;;24.47;28.09;99687.19;5090936;28;20051;-27
2024/03/29 06:29:26;;;;;;;5.25;1.70;;;;;;;24.48;27.94;99693.44;5090436;28;20077;-27
2024/03/29 06:31:51;;;;;;;7.20;1.50;;;;;;;24.91;27.82;99690.56;5091021;28;20032;-26
2024/03/29 06:34:17;;;;;;;7.35;1.88;;;;;;;24.86;27.38;99705.03;5091024;28;20100;-27
2024/03/29 06:36:42;;;;;;;10.10;1.90;;;;;;;25.43;26.87;99693.13;5090588;28;20024;-27
2024/03/29 06:39:08;;;;;;;3.70;1.40;;;;;;;24.64;27.34;99692.13;5090731;28;20135;-27
2024/03/29 06:41:34;;;;;;;4.90;1.73;;;;;;;25.26;26.74;99699.19;5090925;28;20092;-27
2024/03/29 06:43:59;;;;;;;5.05;1.90;;;;;;;25.10;27.06;99709.53;5090931;28;20093;-28
2024/03/29 06:46:25;;;;;;;4.88;1.38;;;;;;;25.49;26.91;99711.78;5090725;28;20036;-27
2024/03/29 06:48:51;;;;;;;6.10;2.10;;;;;;;26.27;26.35;99706.31;5090497;28;20167;-27
2024/03/29 06:51:16;;;;;;;8.82;1.80;;;;;;;25.96;26.10;99713.56;5090566;28;20151;-29
2024/03/29 06:53:41;;;;;;;5.22;1.70;;;;;;;25.61;26.51;99715.91;5090342;28;20401;-27
2024/03/29 06:56:07;;;;;;;8.07;1.65;;;;;;;25.75;26.05;99713.97;5090507;28;20069;-26
2024/03/29 06:58:32;;;;;;;8.23;1.50;;;;;;;25.74;25.97;99713.19;5091263;28;20028;-26
2024/03/29 07:00:58;;;;;;;8.18;1.40;;;;;;;25.64;25.76;99718.81;5094353;28;20035;-28
2024/03/29 07:03:24;;;;;;;6.25;1.35;;;;;;;25.50;26.41;99726.22;5093737;28;20028;-27
2024/03/29 07:05:49;;;;;;;8.95;1.63;;;;;;;25.73;25.76;99733.34;5093750;28;20099;-28
2024/03/29 07:08:16;;;;;;;8.80;1.60;;;;;;;25.81;25.98;99725.56;5094421;28;20031;-27
2024/03/29 07:10:41;;;;;;;5.30;1.45;;;;;;;26.47;25.31;99743.19;5093859;28;20024;-27
2024/03/29 07:13:08;;;;;;;6.18;1.92;;;;;;;25.55;26.08;99737.00;5093716;28;20406;-26
2024/03/29 07:15:33;;;;;;;5.38;1.60;;;;;;;26.21;25.74;99733.97;5093901;28;20059;-26
2024/03/29 07:18:02;;;;;;;5.00;2.17;;;;;;;26.79;25.06;99745.97;5094079;28;20031;-26
2024/03/29 07:20:28;;;;;;;10.25;3.90;;;;;;;26.42;25.46;99743.28;5093975;28;20115;-28
2024/03/29 07:22:53;;;;;;;5.43;1.52;;;;;;;26.80;24.79;99736.69;5093713;28;20020;-28
2024/03/29 07:25:19;;;;;;;3.40;1.10;;;;;;;26.59;25.07;99750.00;5093642;28;20112;-27
2024/03/29 07:27:45;;;;;;;8.68;1.52;;;;;;;26.71;25.07;99753.81;5093933;28;20078;-28
2024/03/29 07:30:11;;;;;;;6.03;1.25;;;;;;;26.72;24.72;99751.91;5093379;28;20103;-28
2024/03/29 07:32:37;;;;;;;4.03;1.13;;;;;;;27.10;24.82;99762.38;5093612;28;20036;-27
2024/03/29 07:35:03;;;;;;;3.70;1.38;;;;;;;26.86;24.90;99762.72;5093409;28;20388;-26
2024/03/29 07:37:28;;;;;;;5.38;1.38;;;;;;;26.97;24.79;99753.16;5093656;28;20097;-27
2024/03/29 07:39:54;;;;;;;6.53;1.40;;;;;;;27.07;24.73;99754.81;5093496;28;20135;-28
2024/03/29 07:42:19;;;;;;;5.47;1.23;;;;;;;27.61;23.98;99763.75;5093290;28;20032;-28
2024/03/29 07:44:45;;;;;;;5.32;1.42;;;;;;;27.18;24.58;99764.34;5093892;28;20024;-27
2024/03/29 07:47:13;;;;;;;3.60;1.45;;;;;;;26.71;25.21;99772.09;5093623;28;20522;-27
2024/03/29 07:49:38;;;;;;;10.07;1.80;;;;;;;27.19;24.42;99774.16;5093224;28;20036;-27
2024/03/29 07:52:05;;;;;;;6.13;1.60;;;;;;;27.68;23.96;99769.56;5093688;28;20472;-27
2024/03/29 07:54:31;;;;;;;2.80;1.40;;;;;;;27.34;24.60;99781.19;5093450;28;20039;-28
2024/03/29 07:56:57;;;;;;;3.17;1.13;;;;;;;27.11;24.62;99777.66;5093579;28;20144;-29
2024/03/29 07:59:22;;;;;;;4.93;1.67;;;;;;;27.47;24.47;99777.53;5093514;28;20027;-28
2024/03/29 08:01:47;;;;;;;4.38;1.40;;;;;;;28.01;24.52;99774.66;5093399;28;20468;-31
2024/03/29 08:04:13;;;;;;;4.22;1.70;;;;;;;29.00;23.41;99784.94;5093030;28;20228;-29
2024/03/29 08:06:39;;;;;;;5.10;1.50;;;;;;;29.66;22.71;99774.72;5093584;28;20020;-29
2024/03/29 08:09:04;;;;;;;5.45;1.40;;;;;;;29.94;22.56;99769.59;5093294;28;20145;-31
2024/03/29 08:11:29;;;;;;;4.85;1.50;;;;;;;29.03;22.80;99767.03;5092066;28;20019;-29
2024/03/29 08:13:55;;;;;;;5.75;1.35;;;;;;;29.20;22.88;99780.72;5092808;28;20024;-28
2024/03/29 08:16:20;;;;;;;2.40;0.98;;;;;;;28.28;23.62;99767.28;5092847;28;20031;-27
2024/03/29 08:18:47;;;;;;;3.35;1.00;;;;;;;27.96;23.67;99763.84;5092637;28;20016;-27
2024/03/29 08:21:13;;;;;;;2.90;1.10;;;;;;;28.10;23.67;99769.19;5093137;28;20024;-29
2024/03/29 08:23:45;;;;;;;9.02;1.40;;;;;;;29.17;22.74;99775.91;5092821;28;20530;-27
2024/03/29 08:26:10;;;;;;;4.68;1.08;;;;;;;29.76;22.15;99786.16;5092869;28;20035;-28
2024/03/29 08:28:37;;;;;;;4.65;1.38;;;;;;;29.45;22.74;99786.44;5092806;28;20028;-27
2024/03/29 08:31:08;;;;;;;4.60;1.35;;;;;;;29.90;21.72;99780.41;5092754;28;20026;-29
2024/03/29 08:33:37;;;;;;;4.18;1.30;;;;;;;30.14;22.51;99790.75;5092486;28;20518;-29
2024/03/29 08:36:04;;;;;;;2.85;1.20;;;;;;;29.32;22.99;99781.97;5092491;28;20031;-27
2024/03/29 08:38:29;;;;;;;4.45;1.38;;;;;;;29.24;22.42;99780.88;5092695;28;20656;-27
2024/03/29 08:40:54;;;;;;;3.00;1.23;;;;;;;29.42;22.79;99774.19;5092508;28;20114;-27
2024/03/29 08:43:20;;;;;;;6.25;1.60;;;;;;;29.60;22.80;99782.34;5092477;28;20020;-28
2024/03/29 08:45:46;;;;;;;6.57;1.50;;;;;;;29.75;22.52;99789.22;5092519;28;20020;-27
2024/03/29 08:48:11;;;;;;;3.67;1.10;;;;;;;29.82;22.33;99793.06;5092068;28;20020;-28
2024/03/29 08:50:36;;;;;;;7.05;1.30;;;;;;;29.79;22.44;99782.72;5092124;28;20077;-27
2024/03/29 08:53:05;;;;;;;2.95;1.02;;;;;;;29.48;22.49;99777.56;5092328;28;20027;-27
2024/03/29 08:55:31;;;;;;;;;;;;;;;29.62;22.55;99778.16;5092476;28;20028;-27
2024/03/29 08:58:01;;;;;;;2.90;1.38;;;;;;;29.67;22.52;99784.56;5092086;28;20251;-27
2024/03/29 09:00:27;;;;;;;6.50;1.27;;;;;;;29.83;22.39;99780.13;5092133;28;20039;-27
2024/03/29 09:02:52;;;;;;;4.22;1.10;;;;;;;29.35;22.77;99786.81;5092419;28;20028;-28
2024/03/29 09:05:18;;;;;;;1.85;1.10;;;;;;;29.55;22.79;99783.34;5092181;28;20016;-28
2024/03/29 09:07:43;;;;;;;2.63;1.20;;;;;;;29.36;22.84;99780.16;5092225;28;20588;-28
2024/03/29 09:10:09;;;;;;;2.95;1.50;;;;;;;30.07;22.23;99784.19;5092080;28;20020;-27
2024/03/29 09:12:34;;;;;;;5.55;1.35;;;;;;;29.82;22.01;99782.09;5091501;28;20024;-27
2024/03/29 09:15:00;;;;;;;7.35;1.40;;;;;;;30.20;22.17;99777.66;5091983;28;20095;-28
2024/03/29 09:17:26;;;;;;;3.20;1.42;;;;;;;30.13;22.46;99769.13;5091985;28;20142;-29
2024/03/29 09:19:52;;;;;;;1.90;1.08;;;;;;;29.52;22.41;99759.31;5092029;28;20499;-29
2024/03/29 09:22:18;;;;;;;3.83;1.00;;;;;;;29.75;22.03;99759.06;5091844;28;20093;-31
2024/03/29 09:24:43;;;;;;;3.63;0.82;;;;;;;29.66;21.88;99767.28;5091607;28;20551;-27
2024/03/29 09:27:09;;;;;;;3.47;1.30;;;;;;;30.60;20.88;99760.72;5091322;28;20480;-27
2024/03/29 09:29:34;;;;;;;5.57;1.10;;;;;;;30.81;20.65;99763.41;5091279;28;20356;-28
2024/03/29 09:32:01;;;;;;;2.63;1.00;;;;;;;31.44;20.73;99760.44;5091654;28;20432;-28
2024/03/29 09:34:27;;;;;;;2.38;1.00;;;;;;;31.24;20.87;99744.84;5091681;28;20050;-26
2024/03/29 09:36:53;;;;;;;5.18;1.23;;;;;;;31.03;20.94;99745.72;5091400;28;20462;-28
2024/03/29 09:39:18;;;;;;;2.92;0.80;;;;;;;30.39;21.47;99730.53;5090699;28;20052;-27
2024/03/29 09:41:45;;;;;;;3.75;1.20;;;;;;;30.82;20.95;99729.28;5091149;28;20069;-28
2024/03/29 09:44:12;;;;;;;4.63;1.30;;;;;;;30.06;21.84;99746.91;5091103;28;20103;-27
2024/03/29 09:46:40;;;;;;;3.95;0.90;;;;;;;30.59;21.22;99734.38;5091481;28;20020;-27
2024/03/29 09:49:06;;;;;;;5.60;1.48;;;;;;;30.45;21.54;99733.88;5091205;28;20480;-28
2024/03/29 09:51:33;;;;;;;3.45;1.30;;;;;;;31.11;20.67;99727.53;5091276;28;20028;-27
2024/03/29 09:54:00;;;;;;;2.42;0.80;;;;;;;31.45;20.23;99720.00;5091471;28;20141;-28
2024/03/29 09:56:26;;;;;;;2.38;1.30;;;;;;;31.42;20.00;99721.50;5091105;28;20020;-27
2024/03/29 09:58:52;;;;;;;2.47;0.90;;;;;;;31.77;19.49;99721.81;5090999;28;20028;-30
2024/03/29 10:01:18;;;;;;;3.85;0.95;;;;;;;32.10;19.64;99720.03;5091228;28;20028;-30
2024/03/29 10:03:52;;;;;;;10.32;1.75;;;;;;;31.99;19.83;99716.97;5091048;28;20028;-27
2024/03/29 10:06:21;;;;;;;7.22;1.40;;;;;;;32.09;19.81;99716.50;5091106;28;20047;-28
2024/03/29 10:08:48;;;;;;;3.53;1.55;;;;;;;32.36;19.66;99710.56;5089708;28;20480;-27
2024/03/29 10:11:18;;;;;;;5.25;1.30;;;;;;;31.58;19.77;99696.06;5090785;28;20027;-28
2024/03/29 10:13:45;;;;;;;3.22;1.30;;;;;;;31.78;19.97;99692.38;5091125;28;20028;-27
2024/03/29 10:16:12;;;;;;;4.90;1.27;;;;;;;31.72;19.76;99697.31;5090963;28;20028;-27
2024/03/29 10:18:40;;;;;;;3.22;1.17;;;;;;;32.13;19.79;99702.84;5090995;28;20027;-28
2024/03/29 10:21:06;;;;;;;3.95;1.50;;;;;;;32.06;19.68;99699.88;5090493;28;20024;-28
2024/03/29 10:23:35;;;;;;;3.35;1.80;;;;;;;32.01;19.25;99697.38;5090505;28;20020;-29
2024/03/29 10:26:00;;;;;;;3.53;2.15;;;;;;;32.78;19.45;99688.88;5090486;28;20032;-27
2024/03/29 10:28:32;;;;;;;3.63;1.45;;;;;;;31.32;20.33;99689.78;5090391;28;20085;-30
2024/03/29 10:30:58;;;;;;;2.88;1.20;;;;;;;31.44;20.40;99683.47;5090803;28;20060;-27
2024/03/29 10:33:23;;;;;;;3.88;1.25;;;;;;;31.76;20.47;99673.47;5090683;28;20059;-29
2024/03/29 10:35:49;;;;;;;3.67;1.50;;;;;;;32.63;19.68;99667.63;5094680;28;20020;-27
2024/03/29 10:38:14;;;;;;;3.97;1.17;;;;;;;33.03;18.95;99672.19;5094361;28;20147;-28
2024/03/29 10:40:40;;;;;;;1.75;1.23;;;;;;;33.67;18.34;99642.59;5094635;28;20028;-27
2024/03/29 10:43:16;;;;;;;5.25;1.35;;;;;;;33.40;18.46;99650.63;5094582;28;20034;-28
2024/03/29 10:45:41;;;;;;;5.07;1.05;;;;;;;33.97;18.42;99640.03;5094782;28;20107;-27
2024/03/29 10:48:09;;;;;;;5.75;1.50;;;;;;;33.26;18.38;99631.00;5094667;28;20124;-28
2024/03/29 10:50:40;;;;;;;2.93;0.90;;;;;;;33.87;18.16;99632.34;5094425;28;20471;-26
2024/03/29 10:53:07;;;;;;;4.78;1.08;;;;;;;33.76;18.11;99615.59;5093998;28;20077;-27
2024/03/29 10:55:36;;;;;;;2.55;1.10;;;;;;;33.96;17.90;99621.88;5094330;28;20055;-29
2024/03/29 10:58:04;;;;;;;3.10;0.90;;;;;;;32.52;18.91;99604.00;5094687;28;20042;-27
2024/03/29 11:00:38;;;;;;;3.90;2.13;;;;;;;32.41;18.74;99597.44;5094284;28;20032;-27
2024/03/29 11:03:32;;;;;;;3.80;1.33;;;;;;;32.61;19.28;99604.63;5094702;28;20031;-28
2024/03/29 11:06:03;;;;;;;7.55;1.17;;;;;;;32.14;19.06;99595.16;5094122;28;20035;-28
2024/03/29 11:08:34;;;;;;;1.63;0.85;;;;;;;32.55;18.85;99595.03;5094091;28;20024;-28
2024/03/29 11:11:01;;;;;;;2.33;1.20;;;;;;;32.06;18.78;99595.31;5094206;28;20032;-27
2024/03/29 11:13:48;;;;;;;3.83;1.40;;;;;;;32.39;19.32;99597.78;5093702;28;20048;-32
2024/03/29 11:16:16;;;;;;;2.22;1.20;;;;;;;33.02;18.40;99601.69;5094360;28;20020;-28
2024/03/29 11:18:43;;;;;;;2.55;1.27;;;;;;;33.14;17.93;99590.56;5093973;28;20048;-27
2024/03/29 11:21:10;;;;;;;3.95;1.38;;;;;;;33.37;18.14;99596.19;5094143;28;20555;-28
2024/03/29 11:23:36;;;;;;;3.60;1.50;;;;;;;33.63;18.13;99578.25;5093897;28;20480;-29
2024/03/29 11:26:03;;;;;;;5.20;2.60;;;;;;;33.04;18.42;99580.88;5093678;28;20020;-28
2024/03/29 11:28:35;;;;;;;4.45;1.27;;;;;;;32.86;18.27;99591.50;5093682;28;20030;-27
2024/03/29 11:31:06;;;;;;;3.75;1.30;;;;;;;32.26;18.67;99588.78;5094196;28;20024;-27
2024/03/29 11:33:35;;;;;;;2.88;1.20;;;;;;;32.17;18.66;99576.34;5093809;28;20031;-26
2024/03/29 11:36:23;;;;;;;3.78;1.25;;;;;;;32.40;19.00;99579.28;5093449;28;20036;-28